Time;durP1;ratioP1;P1;durP2;ratioP2;P2;SDS_P1;SDS_P2;PMS_P1;PMS_P2;Temp;Humidity;BMP_temperature;BMP_pressure;BME280_temperature;BME280_humidity;BME280_pressure;Samples;Min_cycle;Max_cycle;Signal;HPM_P1;HPM_P2
2023/05/22 00:02:12;;;;;;;0.13;0.13;;;;;;;16.41;100.00;100013.09;5049426;28;20233;-83
2023/05/22 00:04:40;;;;;;;1.50;1.38;;;;;;;16.57;100.00;100018.97;5034613;28;20234;-82
2023/05/22 00:07:07;;;;;;;0.10;0.10;;;;;;;16.52;100.00;100028.88;5052537;28;20319;-82
2023/05/22 00:09:35;;;;;;;0.55;0.55;;;;;;;16.66;100.00;100032.16;5048116;28;20234;-83
2023/05/22 00:12:02;;;;;;;0.10;0.10;;;;;;;16.79;100.00;100030.09;5054512;28;20242;-82
2023/05/22 00:14:30;;;;;;;0.10;0.10;;;;;;;16.79;100.00;100025.63;5035202;28;20313;-82
2023/05/22 00:16:58;;;;;;;0.73;0.73;;;;;;;16.78;100.00;100025.66;5043876;28;20238;-82
2023/05/22 00:19:29;;;;;;;0.22;0.22;;;;;;;16.74;100.00;100027.53;5056458;28;20309;-83
2023/05/22 00:21:56;;;;;;;0.10;0.10;;;;;;;16.74;100.00;100021.31;5053471;28;20240;-83
2023/05/22 00:24:24;;;;;;;0.15;0.15;;;;;;;16.68;100.00;100029.47;5041496;28;20280;-83
2023/05/22 00:26:51;;;;;;;0.10;0.10;;;;;;;16.31;100.00;100023.09;5057604;28;20249;-82
2023/05/22 00:29:19;;;;;;;0.68;0.68;;;;;;;16.20;100.00;100027.75;5050888;28;20230;-84
2023/05/22 00:31:46;;;;;;;0.32;0.32;;;;;;;16.07;100.00;100039.59;5054461;28;20238;-82
2023/05/22 00:34:14;;;;;;;0.65;0.65;;;;;;;16.21;100.00;100055.31;5046827;28;20246;-83
2023/05/22 00:36:41;;;;;;;0.52;0.52;;;;;;;16.35;100.00;100069.25;5056330;28;20269;-82
2023/05/22 00:39:09;;;;;;;0.20;0.20;;;;;;;16.25;100.00;100063.25;5038069;28;20261;-82
2023/05/22 00:41:37;;;;;;;0.40;0.40;;;;;;;16.15;100.00;100068.78;5054143;28;20249;-82
2023/05/22 00:44:04;;;;;;;0.68;0.60;;;;;;;16.12;100.00;100092.84;5035851;28;20237;-83
2023/05/22 00:46:32;;;;;;;0.82;0.82;;;;;;;16.11;100.00;100107.97;5035062;28;20598;-83
2023/05/22 00:49:00;;;;;;;0.28;0.28;;;;;;;15.88;100.00;100110.19;5131409;22;20250;-82
2023/05/22 00:51:27;;;;;;;0.52;0.52;;;;;;;15.81;100.00;100125.41;5042879;28;20231;-82
2023/05/22 00:53:55;;;;;;;0.57;0.57;;;;;;;15.92;100.00;100138.56;5014268;28;20262;-82
2023/05/22 00:56:23;;;;;;;0.63;0.40;;;;;;;15.89;100.00;100158.16;5032758;28;20238;-82
2023/05/22 00:58:51;;;;;;;0.95;0.90;;;;;;;15.97;100.00;100172.25;5010688;28;20242;-83
2023/05/22 01:01:19;;;;;;;0.47;0.47;;;;;;;15.98;100.00;100168.66;5014004;28;20235;-83
2023/05/22 01:03:47;;;;;;;0.55;0.55;;;;;;;16.07;100.00;100167.63;5048462;28;20233;-81
2023/05/22 01:06:17;;;;;;;1.02;1.02;;;15.70;99.90;;;15.87;100.00;100175.09;5015262;28;20314;-83
2023/05/22 01:08:44;;;;;;;1.65;1.00;;;;;;;15.44;100.00;100185.47;5031412;28;20726;-82
2023/05/22 01:11:25;;;;;;;1.65;1.55;;;15.10;99.90;;;15.04;100.00;100202.03;5023963;28;20223;-82
2023/05/22 01:14:50;;;;;;;0.73;0.70;;;14.90;99.90;;;14.75;100.00;100220.13;5014757;28;20226;-81
2023/05/22 01:17:36;;;;;;;0.63;0.63;;;14.60;99.90;;;14.80;100.00;100248.47;5016359;28;20238;-82
2023/05/22 01:20:10;;;;;;;1.90;1.30;;;;;;;15.07;100.00;100259.69;5034540;28;20230;-81
2023/05/22 01:22:57;;;;;;;1.30;1.20;;;14.80;99.90;;;15.24;100.00;100261.25;5006988;28;20238;-83
2023/05/22 01:25:48;;;;;;;0.60;0.60;;;14.90;99.90;;;15.20;100.00;100264.84;5010210;28;20235;-83
2023/05/22 01:28:15;;;;;;;0.70;0.70;;;;;;;15.31;100.00;100278.03;5030065;28;20336;-83
2023/05/22 01:31:27;;;;;;;0.50;0.50;;;15.10;99.90;;;15.37;100.00;100267.28;5032982;28;20245;-83
2023/05/22 01:33:57;;;;;;;0.60;0.60;;;15.00;99.90;;;15.30;100.00;100274.47;4979916;28;20698;-83
2023/05/22 01:36:30;;;;;;;0.30;0.30;;;15.00;99.90;;;15.28;100.00;100284.28;5031531;28;20227;-83
2023/05/22 01:39:00;;;;;;;0.75;0.75;;;;;;;15.00;100.00;100289.06;5028129;28;20230;-83
2023/05/22 01:41:28;;;;;;;0.65;0.65;;;14.80;99.90;;;15.06;100.00;100293.44;5014358;28;20234;-84
2023/05/22 01:43:56;;;;;;;1.23;0.68;;;;;;;14.95;100.00;100303.31;5014082;28;20239;-83
2023/05/22 01:46:29;;;;;;;0.30;0.30;;;14.80;99.90;;;15.12;100.00;100322.66;5025293;28;20231;-83
2023/05/22 01:48:57;;;;;;;0.30;0.30;;;14.80;99.90;;;15.11;100.00;100317.34;5061057;23;20244;-85
2023/05/22 01:51:43;;;;;;;0.20;0.20;;;;;;;14.62;100.00;100329.38;5048836;28;20234;-85
2023/05/22 01:54:42;;;;;;;0.32;0.32;;;14.60;99.90;;;14.88;100.00;100346.88;5031486;28;20236;-84
2023/05/22 01:57:36;;;;;;;2.35;0.40;;;14.50;99.90;;;14.75;100.00;100338.13;5049200;28;20234;-84
2023/05/22 02:00:09;;;;;;;0.20;0.20;;;14.60;99.90;;;14.96;100.00;100339.69;5034089;28;20340;-84
2023/05/22 02:02:42;;;;;;;0.28;0.28;;;14.60;99.90;;;15.01;100.00;100332.53;5034528;28;20230;-84
2023/05/22 02:05:11;;;;;;;0.28;0.28;;;14.70;99.90;;;15.03;100.00;100320.09;5036410;28;20265;-82
2023/05/22 02:07:40;;;;;;;0.35;0.30;;;13.50;99.90;;;14.89;100.00;100330.91;5043177;28;20231;-83
2023/05/22 02:10:10;;;;;;;0.20;0.20;;;14.60;99.90;;;14.78;100.00;100338.09;5042278;28;20245;-84
2023/05/22 02:12:37;;;;;;;0.40;0.40;;;;;;;14.76;100.00;100342.56;5057775;28;20234;-83
2023/05/22 02:15:07;;;;;;;0.30;0.30;;;14.60;99.90;;;14.97;100.00;100354.78;5072546;28;20238;-82
2023/05/22 02:17:41;;;;;;;0.65;0.65;;;14.40;99.90;;;14.62;100.00;100361.31;5040571;28;20234;-82
2023/05/22 02:20:14;;;;;;;0.25;0.25;;;14.30;99.90;;;14.39;100.00;100350.84;5051332;28;20227;-83
2023/05/22 02:22:46;;;;;;;0.10;0.10;;;14.20;99.90;;;14.43;100.00;100365.03;5056334;28;20245;-82
2023/05/22 02:25:15;;;;;;;0.15;0.15;;;14.20;99.90;;;14.43;100.00;100369.47;5055863;28;20234;-82
2023/05/22 02:27:45;;;;;;;0.22;0.22;;;14.20;99.90;;;14.57;100.00;100383.53;5055464;28;20317;-81
2023/05/22 02:30:14;;;;;;;0.38;0.38;;;14.40;99.90;;;14.60;100.00;100391.50;5053041;28;20249;-83
2023/05/22 02:32:42;;;;;;;0.47;0.47;;;;;;;14.54;100.00;100387.13;5051844;28;20240;-81
2023/05/22 02:35:09;;;;;;;1.38;1.38;;;;;;;14.47;100.00;100397.81;5053427;28;20242;-81
2023/05/22 02:37:37;;;;;;;0.47;0.47;;;;;;;14.35;100.00;100398.75;5044297;28;20265;-81
2023/05/22 02:40:05;;;;;;;0.10;0.10;;;14.10;99.90;;;14.32;100.00;100398.78;5055848;28;20243;-81
2023/05/22 02:42:33;;;;;;;0.15;0.15;;;;;;;14.41;100.00;100412.00;5046815;28;20242;-81
2023/05/22 02:45:01;;;;;;;0.10;0.10;;;;;;;14.27;100.00;100404.09;5016805;28;20242;-81
2023/05/22 02:47:31;;;;;;;0.43;0.43;;;13.90;99.90;;;14.15;100.00;100419.25;5052983;28;20234;-82
2023/05/22 02:49:59;;;;;;;0.13;0.13;;;;;;;14.21;100.00;100437.81;5049284;28;20401;-81
2023/05/22 02:52:27;;;;;;;0.40;0.40;;;;;;;14.26;100.00;100444.00;5048006;28;20234;-81
2023/05/22 02:54:54;;;;;;;0.20;0.20;;;;;;;14.28;100.00;100445.75;5045690;28;20242;-82
2023/05/22 02:57:22;;;;;;;0.40;0.40;;;;;;;14.35;100.00;100451.97;5048573;28;20237;-81
2023/05/22 02:59:50;;;;;;;0.43;0.43;;;;;;;14.33;100.00;100451.97;5045983;28;20237;-81
2023/05/22 03:02:18;;;;;;;1.30;0.88;;;;;;;14.28;100.00;100444.88;5045990;28;20234;-81
2023/05/22 03:04:46;;;;;;;0.10;0.10;;;;;;;14.28;100.00;100450.19;5052975;28;20238;-82
2023/05/22 03:07:13;;;;;;;0.47;0.40;;;;;;;13.99;100.00;100442.38;5051956;28;20678;-82
2023/05/22 03:09:41;;;;;;;0.73;0.73;;;;;;;14.07;100.00;100456.50;5039318;28;20239;-81
2023/05/22 03:12:08;;;;;;;0.30;0.30;;;13.80;99.90;;;13.97;100.00;100461.00;5048295;28;20611;-82
2023/05/22 03:14:36;;;;;;;0.25;0.25;;;;;;;13.96;100.00;100475.19;5050811;28;20234;-84
2023/05/22 03:17:04;;;;;;;0.28;0.28;;;;;;;14.05;100.00;100483.13;5038074;28;20237;-83
2023/05/22 03:19:31;;;;;;;0.10;0.10;;;;;;;13.99;100.00;100487.56;5047547;28;20762;-81
2023/05/22 03:21:59;;;;;;;0.10;0.10;;;;;;;14.12;100.00;100497.28;5052937;28;20725;-81
2023/05/22 03:24:26;;;;;;;0.17;0.17;;;;;;;14.25;100.00;100498.09;5050851;28;20251;-81
2023/05/22 03:26:54;;;;;;;0.30;0.30;;;;;;;14.31;100.00;100506.97;5063305;28;20241;-81
2023/05/22 03:29:21;;;;;;;0.22;0.22;;;;;;;14.29;100.00;100503.38;5054428;28;20570;-81
2023/05/22 03:31:49;;;;;;;0.45;0.45;;;;;;;14.34;100.00;100495.41;5055774;28;20257;-83
2023/05/22 03:34:16;;;;;;;0.20;0.20;;;;;;;14.33;100.00;100499.84;5055173;28;20238;-81
2023/05/22 03:36:44;;;;;;;0.35;0.35;;;;;;;14.30;100.00;100493.63;5037633;28;20269;-82
2023/05/22 03:39:12;;;;;;;1.55;1.13;;;;;;;14.10;100.00;100501.72;5037170;28;20230;-82
2023/05/22 03:41:40;;;;;;;0.43;0.43;;;;;;;14.10;100.00;100515.00;5055013;28;20229;-82
2023/05/22 03:44:07;;;;;;;0.20;0.20;;;;;;;14.16;100.00;100514.97;5053454;28;20234;-82
2023/05/22 03:46:34;;;;;;;0.40;0.40;;;;;;;14.09;100.00;100515.91;5056837;28;20235;-82
2023/05/22 03:49:02;;;;;;;0.20;0.20;;;;;;;14.07;100.00;100517.69;5037757;28;20236;-83
2023/05/22 03:51:30;;;;;;;0.22;0.22;;;;;;;14.14;100.00;100523.84;5055996;28;20248;-82
2023/05/22 03:53:58;;;;;;;0.20;0.20;;;;;;;14.15;100.00;100523.84;5059281;28;20300;-82
2023/05/22 03:56:25;;;;;;;0.32;0.32;;;;;;;14.04;100.00;100523.88;5058682;28;20237;-82
2023/05/22 03:58:53;;;;;;;0.47;0.47;;;;;;;14.15;100.00;100533.59;5055439;28;20234;-82
2023/05/22 04:01:21;;;;;;;0.20;0.20;;;;;;;14.20;100.00;100538.00;5049947;28;20261;-84
2023/05/22 04:03:48;;;;;;;0.15;0.15;;;;;;;14.20;100.00;100543.34;5053475;28;20312;-82
2023/05/22 04:06:16;;;;;;;0.28;0.28;;;;;;;14.21;100.00;100536.25;5058235;28;20250;-82
2023/05/22 04:08:43;;;;;;;1.15;1.15;;;;;;;14.28;100.00;100541.53;5062858;28;20246;-82
2023/05/22 04:11:14;;;;;;;0.20;0.20;;;;;;;14.42;100.00;100544.19;5056841;28;20246;-84
2023/05/22 04:13:44;;;;;;;0.20;0.20;;;14.10;99.90;;;14.46;100.00;100537.97;5059337;28;20237;-83
2023/05/22 04:16:12;;;;;;;0.60;0.60;;;;;;;14.49;100.00;100529.06;5056992;28;20241;-83
2023/05/22 04:18:40;;;;;;;0.20;0.20;;;;;;;14.50;100.00;100522.84;5060820;28;20231;-84
2023/05/22 04:21:08;;;;;;;0.10;0.10;;;;;;;14.53;100.00;100525.50;5056705;28;20229;-82
2023/05/22 04:23:37;;;;;;;0.65;0.65;;;;;;;14.58;100.00;100516.59;5052429;28;20236;-82
2023/05/22 04:26:07;;;;;;;0.10;0.10;;;14.20;99.90;;;14.57;100.00;100521.94;5019101;28;20230;-81
2023/05/22 04:28:35;;;;;;;0.10;0.10;;;;;;;14.41;100.00;100518.44;5034988;28;20223;-83
2023/05/22 04:31:05;;;;;;;0.20;0.20;;;;;;;14.52;100.00;100526.41;5051596;28;20238;-82
2023/05/22 04:33:37;;;;;;;0.32;0.32;;;;;;;14.67;100.00;100547.59;5046081;28;20288;-81
2023/05/22 04:36:05;;;;;;;0.35;0.35;;;14.20;99.90;;;14.44;100.00;100553.03;5032117;28;20234;-83
2023/05/22 04:38:35;;;;;;;0.20;0.20;;;;;;;14.60;100.00;100570.69;5049601;28;20253;-80
2023/05/22 04:41:03;;;;;;;0.47;0.47;;;;;;;14.70;100.00;100571.53;5044453;28;20650;-82
2023/05/22 04:43:31;;;;;;;0.10;0.10;;;;;;;14.63;100.00;100564.47;5049274;28;20245;-83
2023/05/22 04:45:59;;;;;;;0.20;0.20;;;;;;;14.50;100.00;100554.78;5025890;28;20246;-84
2023/05/22 04:48:27;;;;;;;0.25;0.25;;;;;;;14.41;100.00;100561.91;5089438;22;20234;-89
2023/05/22 04:50:57;;;;;;;0.32;0.25;;;;;;;14.38;100.00;100569.88;5044791;28;20230;-83
2023/05/22 04:53:26;;;;;;;0.35;0.35;;;;;;;14.53;100.00;100579.63;5042039;28;20657;-85
2023/05/22 04:55:54;;;;;;;0.60;0.50;;;;;;;14.47;100.00;100586.75;5049311;28;20225;-87
2023/05/22 04:58:28;;;;;;;0.10;0.10;;;;;;;14.46;100.00;100585.84;5043587;28;20229;-85
2023/05/22 05:00:56;;;;;;;0.70;0.70;;;;;;;14.55;100.00;100598.22;5048288;28;20236;-86
2023/05/22 05:03:24;;;;;;;0.10;0.10;;;;;;;14.62;100.00;100584.00;5048624;28;20258;-84
2023/05/22 05:05:52;;;;;;;0.43;0.40;;;;;;;14.64;100.00;100574.22;5049090;28;20237;-84
2023/05/22 05:08:19;;;;;;;0.30;0.30;;;;;;;14.67;100.00;100571.56;5028701;28;20241;-83
2023/05/22 05:10:47;;;;;;;0.10;0.10;;;;;;;14.71;100.00;100579.50;5045205;28;20323;-82
2023/05/22 05:13:14;;;;;;;0.40;0.40;;;;;;;14.86;100.00;100575.00;5050462;28;20247;-82
2023/05/22 05:15:42;;;;;;;0.40;0.40;;;;;;;14.90;100.00;100571.41;5048331;28;20239;-83
2023/05/22 05:18:10;;;;;;;0.45;0.45;;;;;;;14.93;100.00;100560.75;5050555;28;20258;-82
2023/05/22 05:20:37;;;;;;;0.10;0.10;;;;;;;14.97;100.00;100546.50;5054671;28;20284;-83
2023/05/22 05:23:05;;;;;;;0.40;0.40;;;;;;;15.12;100.00;100551.72;5005870;28;20743;-82
2023/05/22 05:25:34;;;;;;;0.10;0.10;;;;;;;15.19;100.00;100550.78;5026159;28;20229;-84
2023/05/22 05:28:02;;;;;;;0.15;0.15;;;;;;;15.27;100.00;100540.94;5051408;28;20230;-82
2023/05/22 05:30:30;;;;;;;0.35;0.35;;;;;;;15.44;100.00;100540.81;5055563;28;20317;-83
2023/05/22 05:32:58;;;;;;;0.25;0.25;;;;;;;15.62;100.00;100524.69;5054399;28;20242;-82
2023/05/22 05:35:25;;;;;;;0.10;0.10;;;;;;;15.72;100.00;100508.59;5054285;28;20238;-82
2023/05/22 05:37:53;;;;;;;0.65;0.65;;;;;;;15.82;100.00;100496.94;5054850;28;20241;-83
2023/05/22 05:40:20;;;;;;;0.10;0.10;;;;;;;15.89;100.00;100458.63;5055688;28;20233;-83
2023/05/22 05:42:48;;;;;;;1.10;1.10;;;;;;;16.05;100.00;100459.31;5055053;28;20230;-80
2023/05/22 05:45:15;;;;;;;0.50;0.50;;;;;;;16.13;100.00;100444.97;5053919;28;20257;-82
2023/05/22 05:50:22;;;;;;;0.20;0.20;;;;;;;16.35;100.00;100396.63;5002710;28;20224;-83
2023/05/22 05:52:50;;;;;;;1.05;1.00;;;;;;;16.45;100.00;100375.13;5011548;28;20239;-83
2023/05/22 05:55:17;;;;;;;0.22;0.22;;;;;;;16.56;100.00;100367.81;4992941;28;20240;-82
2023/05/22 05:57:45;;;;;;;0.43;0.43;;;;;;;16.76;100.00;100380.88;4993837;28;20265;-83
2023/05/22 06:00:13;;;;;;;0.10;0.10;;;;;;;16.69;100.00;100391.66;5010624;28;20247;-83
2023/05/22 06:02:40;;;;;;;0.50;0.50;;;;;;;16.71;100.00;100403.22;5011307;28;20243;-83
2023/05/22 06:05:09;;;;;;;0.10;0.10;;;;;;;16.86;100.00;100410.97;5012686;28;20240;-82
2023/05/22 06:07:38;;;;;;;0.60;0.60;;;;;;;16.86;100.00;100403.84;5010743;28;20244;-82
2023/05/22 06:10:10;;;;;;;0.10;0.10;;;16.50;99.90;;;16.89;100.00;100381.53;5011926;28;20307;-82
2023/05/22 06:12:37;;;;;;;0.10;0.10;;;;;;;16.87;100.00;100373.53;5012575;28;20243;-82
2023/05/22 06:15:06;;;;;;;0.10;0.10;;;16.50;99.90;;;16.87;100.00;100378.00;4994182;28;20560;-82
2023/05/22 06:17:34;;;;;;;0.20;0.20;;;16.50;99.90;;;16.92;100.00;100371.72;5011367;28;20323;-83
2023/05/22 06:20:04;;;;;;;1.40;1.40;;;;;;;17.10;100.00;100357.13;5025097;28;20294;-81
2023/05/22 06:22:31;;;;;;;0.40;0.40;;;;;;;17.18;100.00;100340.94;5017692;28;20228;-82
2023/05/22 06:24:59;;;;;;;0.30;0.30;;;;;;;17.15;100.00;100352.56;5011371;28;20240;-82
2023/05/22 06:27:26;;;;;;;1.00;1.00;;;;;;;17.45;100.00;100366.25;5011023;28;20239;-82
2023/05/22 06:29:54;;;;;;;0.10;0.10;;;;;;;17.54;100.00;100348.22;5007667;28;20235;-82
2023/05/22 06:32:22;;;;;;;0.10;0.10;;;;;;;17.76;100.00;100350.47;5011862;28;20242;-82
2023/05/22 06:34:50;;;;;;;1.70;0.55;;;;;;;17.87;100.00;100337.75;5012267;28;20309;-83
2023/05/22 06:37:17;;;;;;;0.40;0.40;;;;;;;18.04;100.00;100327.53;5013079;28;20245;-83
2023/05/22 06:39:45;;;;;;;0.32;0.32;;;;;;;18.22;100.00;100318.22;5011635;28;20254;-82
2023/05/22 06:42:12;;;;;;;2.05;1.95;;;;;;;18.48;100.00;100320.25;5012601;28;20240;-83
2023/05/22 06:44:40;;;;;;;0.73;0.73;;;;;;;18.76;100.00;100316.00;5012361;28;20247;-82
2023/05/22 06:47:07;;;;;;;0.10;0.10;;;;;;;18.80;100.00;100295.34;5011399;28;20242;-84
2023/05/22 06:49:35;;;;;;;0.38;0.28;;;;;;;18.78;100.00;100275.75;5008102;28;20359;-82
2023/05/22 06:52:02;;;;;;;0.35;0.35;;;;;;;18.98;100.00;100261.81;5011593;28;20235;-82
2023/05/22 06:54:31;;;;;;;2.38;1.13;;;;;;;19.24;100.00;100253.91;5014405;28;20236;-82
2023/05/22 06:56:59;;;;;;;0.52;0.52;;;;;;;19.52;100.00;100242.38;5012371;28;20236;-82
2023/05/22 06:59:26;;;;;;;0.75;0.75;;;;;;;19.64;100.00;100226.81;5010071;28;20243;-83
2023/05/22 07:01:53;;;;;;;0.08;0.08;;;;;;;19.83;100.00;100228.91;5013107;28;20235;-83
2023/05/22 07:04:21;;;;;;;1.25;1.25;;;;;;;19.75;100.00;100202.34;5010287;28;20232;-84
2023/05/22 07:06:49;;;;;;;0.70;0.63;;;;;;;20.22;100.00;100208.81;5013307;28;20247;-83
2023/05/22 07:09:17;;;;;;;0.73;0.73;;;;;;;19.88;100.00;100157.19;5012835;28;20235;-83
2023/05/22 07:11:45;;;;;;;0.35;0.35;;;;;;;20.01;100.00;100154.03;5014001;28;20232;-83
2023/05/22 07:14:13;;;;;;;0.10;0.10;;;;;;;20.35;100.00;100155.56;5013752;28;20240;-82
2023/05/22 07:16:40;;;;;;;0.10;0.10;;;;;;;20.44;100.00;100134.66;5010111;28;20246;-82
2023/05/22 07:19:09;;;;;;;0.10;0.10;;;;;;;20.51;100.00;100151.41;5011258;28;20270;-82
2023/05/22 07:21:36;;;;;;;1.25;1.25;;;;;;;20.35;100.00;100126.00;5014195;28;20255;-82
2023/05/22 07:24:07;;;;;;;3.03;0.60;;;;;;;20.37;100.00;100116.97;5008573;28;20252;-82
2023/05/22 07:26:35;;;;;;;0.20;0.20;;;20.20;99.90;;;20.62;100.00;100119.66;5009372;28;20239;-82
2023/05/22 07:29:04;;;;;;;0.20;0.20;;;20.30;99.90;;;20.71;100.00;100108.56;5011869;28;20246;-83
2023/05/22 07:31:33;;;;;;;0.10;0.10;;;;;;;21.02;100.00;100113.69;5013415;28;20234;-83
2023/05/22 07:34:00;;;;;;;0.10;0.10;;;;;;;20.97;100.00;100071.78;5012747;28;20238;-84
2023/05/22 07:36:28;;;;;;;1.00;0.68;;;;;;;21.21;100.00;100089.63;5012452;28;20238;-83
2023/05/22 07:38:55;;;;;;;1.02;0.22;;;;;;;21.17;100.00;100058.41;4994704;28;20235;-83
2023/05/22 07:41:24;;;;;;;0.50;0.50;;;;;;;21.12;100.00;100064.91;5012251;28;20235;-84
2023/05/22 07:43:51;;;;;;;0.17;0.17;;;;;;;21.47;100.00;100098.50;5013003;28;20242;-83
2023/05/22 07:46:19;;;;;;;0.68;0.68;;;;;;;21.63;100.00;100061.94;5012809;28;20315;-83
2023/05/22 07:48:46;;;;;;;0.52;0.52;;;;;;;21.68;100.00;100050.03;5011548;28;20269;-82
2023/05/22 07:51:14;;;;;;;0.10;0.10;;;;;;;21.83;100.00;100059.25;5017914;28;20317;-82
2023/05/22 07:53:41;;;;;;;0.10;0.10;;;;;;;22.33;100.00;100058.91;5005099;28;20243;-82
2023/05/22 07:56:10;;;;;;;0.75;0.43;;;;;;;22.09;100.00;99993.53;5011632;28;20236;-82
2023/05/22 07:58:38;;;;;;;0.90;0.90;;;21.40;99.90;;;21.80;100.00;99975.94;5007394;28;20242;-83
2023/05/22 08:01:06;;;;;;;0.98;0.93;;;21.90;99.90;;;22.11;100.00;99978.22;5011911;28;20269;-83
2023/05/22 08:03:35;;;;;;;0.20;0.20;;;;;;;22.23;100.00;99955.22;5027296;28;20231;-83
2023/05/22 08:06:03;;;;;;;0.30;0.28;;;21.90;99.90;;;22.07;100.00;99964.94;5012168;28;20239;-84
2023/05/22 08:08:32;;;;;;;0.75;0.75;;;;;;;21.87;100.00;99926.28;5011622;28;20227;-85
2023/05/22 08:11:00;;;;;;;0.57;0.45;;;;;;;22.45;100.00;99934.41;5015698;28;20257;-85
2023/05/22 08:13:31;;;;;;;0.50;0.47;;;;;;;22.84;100.00;99950.50;5014574;28;20318;-83
2023/05/22 08:15:58;;;;;;;0.55;0.55;;;;;;;22.46;100.00;99906.53;5015589;28;20301;-84
2023/05/22 08:18:28;;;;;;;1.52;0.82;;;22.10;99.90;;;21.96;100.00;99877.41;5012292;28;20238;-83
2023/05/22 08:20:56;;;;;;;2.20;1.65;;;;;;;22.39;100.00;99923.94;5011278;28;20235;-83
2023/05/22 08:23:24;;;;;;;0.00;0.00;;;;;;;22.37;100.00;99911.47;5012863;28;20733;-83
2023/05/22 08:25:51;;;;;;;0.65;0.65;;;;;;;22.39;100.00;99905.06;5014611;28;20249;-84
2023/05/22 08:28:19;;;;;;;0.75;0.75;;;;;;;22.85;100.00;99894.75;5013281;28;20318;-83
2023/05/22 08:30:47;;;;;;;0.45;0.43;;;;;;;23.23;100.00;99915.28;5014080;28;20239;-84
2023/05/22 08:33:15;;;;;;;0.00;0.00;;;;;;;23.17;100.00;99872.44;5014326;28;20253;-84
2023/05/22 08:35:43;;;;;;;0.05;0.05;;;;;;;23.44;100.00;99882.75;5015606;28;20242;-84
2023/05/22 08:38:10;;;;;;;0.32;0.32;;;;;;;23.33;100.00;99801.47;5014667;28;20304;-83
2023/05/22 08:40:41;;;;;;;0.68;0.68;;;;;;;23.96;100.00;99825.97;5015376;28;20235;-83
2023/05/22 08:43:12;;;;;;;0.28;0.28;;;;;;;22.92;100.00;99743.38;5013788;28;20234;-82
2023/05/22 08:45:41;;;;;;;0.80;0.68;;;;;;;22.98;100.00;99766.47;5015014;28;20245;-82
2023/05/22 08:51:01;;;;;;;1.10;0.60;;;23.20;99.90;;;23.33;100.00;99767.28;4947397;28;20236;-82
2023/05/22 08:53:33;;;;;;;0.30;0.30;;;23.70;99.90;;;24.18;100.00;99822.00;4943654;28;20244;-81
2023/05/22 08:56:02;;;;;;;0.30;0.30;;;23.70;99.90;;;24.01;100.00;99768.06;4942554;29;20237;-82
2023/05/22 08:58:34;;;;;;;0.47;0.47;;;23.70;99.90;;;23.87;100.00;99732.84;4937102;29;20234;-82
2023/05/22 09:01:02;;;;;;;0.85;0.85;;;23.30;99.90;;;23.31;100.00;99669.38;4947905;28;20590;-82
2023/05/22 09:03:33;;;;;;;0.00;0.00;;;;;;;23.81;100.00;99717.88;4956771;28;20229;-80
2023/05/22 09:06:01;;;;;;;1.13;1.10;;;;;;;23.37;100.00;99633.94;4952176;28;20267;-80
2023/05/22 09:08:29;;;;;;;0.65;0.65;;;;;;;23.78;100.00;99685.66;4948562;28;20616;-80
2023/05/22 09:10:56;;;;;;;0.75;0.75;;;23.50;99.90;;;23.87;100.00;99685.13;4937667;28;20248;-80
2023/05/22 09:13:29;;;;;;;0.73;0.73;;;23.50;99.90;;;23.77;100.00;99664.13;4955746;28;20233;-80
2023/05/22 09:16:12;;;;;;;0.88;0.88;;;24.10;99.90;;;24.51;100.00;99677.78;4939641;28;20265;-80
2023/05/22 09:18:43;;;;;;;1.35;0.68;;;24.20;99.90;;;24.50;100.00;99628.25;4955546;28;20246;-79
2023/05/22 09:21:13;;;;;;;0.43;0.43;;;24.20;99.90;;;24.21;100.00;99584.06;4968604;28;20232;-79
2023/05/22 09:23:58;;;;;;;0.30;0.30;;;;;;;24.69;100.00;99575.75;4945896;28;20288;-81
2023/05/22 09:26:29;;;;;;;0.60;0.47;;;24.60;99.90;;;24.97;100.00;99556.00;4944672;28;20229;-79
2023/05/22 09:28:58;;;;;;;0.40;0.40;;;25.00;99.90;;;24.98;100.00;99569.44;4969394;28;20308;-80
2023/05/22 09:31:28;;;;;;;0.20;0.20;;;25.00;99.90;;;24.95;100.00;99541.69;4949779;28;20241;-80
2023/05/22 09:33:55;;;;;;;1.15;0.85;;;;;;;25.57;100.00;99571.94;4967063;28;20244;-82
2023/05/22 09:36:31;;;;;;;1.33;0.93;;;25.50;99.90;;;25.81;100.00;99551.38;4950956;28;20642;-81
2023/05/22 09:39:00;;;;;;;0.40;0.40;;;25.30;99.90;;;25.40;100.00;99510.78;4951916;28;20328;-81
2023/05/22 09:41:32;;;;;;;0.40;0.40;;;25.20;99.90;;;25.13;100.00;99462.06;4959214;28;20230;-80
2023/05/22 09:44:00;;;;;;;0.75;0.70;;;25.20;99.90;;;25.39;100.00;99461.19;4946259;28;20243;-80
2023/05/22 09:46:28;;;;;;;0.47;0.43;;;25.30;99.90;;;25.47;100.00;99458.84;4950031;28;20242;-80
2023/05/22 09:48:56;;;;;;;0.28;0.28;;;;;;;25.41;100.00;99423.22;4951574;28;20693;-80
2023/05/22 09:51:26;;;;;;;0.45;0.45;;;25.20;99.90;;;25.22;100.00;99445.22;4951303;28;20242;-80
2023/05/22 09:54:02;;;;;;;0.55;0.55;;;25.50;99.90;;;26.03;100.00;99530.00;4964542;28;20598;-79
2023/05/22 09:56:34;;;;;;;0.52;0.52;;;25.60;99.90;;;25.58;100.00;99435.59;4955209;28;20365;-80
2023/05/22 09:59:08;;;;;;;0.40;0.22;;;26.30;99.90;;;26.35;100.00;99488.97;4952547;28;20239;-80
2023/05/22 10:01:37;;;;;;;0.55;0.50;;;26.40;99.90;;;26.29;100.00;99427.03;4945505;28;20305;-79
2023/05/22 10:04:12;;;;;;;0.40;0.38;;;26.60;99.90;;;27.06;100.00;99483.78;4948120;28;20229;-79
2023/05/22 10:06:41;;;;;;;1.83;0.80;;;25.80;99.90;;;26.04;100.00;99339.38;4954333;28;20241;-78
2023/05/22 10:09:15;;;;;;;0.80;0.80;;;25.60;99.90;;;25.67;100.00;99324.84;4937935;28;20325;-80
2023/05/22 10:11:46;;;;;;;0.82;0.82;;;25.80;99.90;;;26.31;100.00;99373.56;4937154;29;20268;-78
2023/05/22 10:14:14;;;;;;;0.40;0.40;;;25.80;99.90;;;26.60;100.00;99369.63;4947515;28;20608;-79
2023/05/22 10:16:43;;;;;;;0.82;0.82;;;26.40;99.90;;;26.89;100.00;99462.41;4964642;28;20256;-78
2023/05/22 10:19:11;;;;;;;0.47;0.47;;;26.80;99.90;;;26.64;100.00;99335.00;4950927;28;20621;-79
2023/05/22 10:21:40;;;;;;;0.50;0.50;;;26.20;99.90;;;26.35;100.00;99293.81;4946215;28;20283;-79
2023/05/22 10:24:09;;;;;;;1.15;1.15;;;26.70;99.90;;;26.85;100.00;99309.00;4950039;28;20244;-79
2023/05/22 10:26:38;;;;;;;2.42;1.20;;;26.70;99.90;;;27.07;100.00;99267.53;4963865;28;20262;-79
2023/05/22 10:29:17;;;;;;;0.40;0.40;;;26.90;99.90;;;26.91;100.00;99265.13;4947494;28;20236;-79
2023/05/22 10:32:07;;;;;;;2.15;0.73;;;26.80;99.90;;;27.51;100.00;99318.41;4950652;28;20240;-79
2023/05/22 10:34:40;;;;;;;0.20;0.20;;;;;;;26.82;100.00;99140.19;4968131;28;20225;-79
2023/05/22 10:37:25;;;;;;;0.50;0.50;;;26.70;99.90;;;26.54;100.00;99128.78;4947906;28;20648;-79
2023/05/22 10:39:59;;;;;;;0.60;0.60;;;;;;;27.08;100.00;99204.16;4948420;28;20225;-82
2023/05/22 10:42:31;;;;;;;0.95;0.95;;;27.10;99.90;;;27.40;100.00;99278.53;4967210;28;20292;-83
2023/05/22 10:45:00;;;;;;;0.75;0.75;;;26.80;99.90;;;26.70;100.00;99099.47;4952544;28;20240;-85
2023/05/22 10:47:28;;;;;;;0.35;0.35;;;;;;;28.07;100.00;99217.06;4966160;28;20248;-81
2023/05/22 10:50:08;;;;;;;1.98;1.20;;;28.50;99.90;;;28.34;100.00;99131.38;5010787;22;20258;-84
2023/05/22 10:52:37;;;;;;;0.03;0.03;;;28.90;99.90;;;29.36;100.00;99225.09;5010205;28;20230;-84
2023/05/22 10:55:10;;;;;;;0.98;0.88;;;29.10;99.90;;;28.82;100.00;99154.53;5003858;28;20241;-84
2023/05/22 10:57:38;;;;;;;0.40;0.40;;;28.90;99.90;;;28.50;100.00;99079.25;5006070;28;20349;-86
2023/05/22 11:00:12;;;;;;;0.20;0.20;;;29.00;99.90;;;28.62;100.00;99063.75;4998579;28;20236;-85
2023/05/22 11:02:42;;;;;;;0.00;0.00;;;28.70;99.90;;;28.41;100.00;99061.00;4988169;28;20600;-84
2023/05/22 11:05:20;;;;;;;0.13;0.13;;;28.80;99.90;;;29.08;100.00;99079.66;4993563;28;20669;-81
2023/05/22 11:07:50;;;;;;;1.27;0.93;;;;;;;28.26;100.00;98976.22;4995072;28;20235;-81
2023/05/22 11:11:00;;;;;;;1.08;0.82;;;28.50;99.90;;;28.72;100.00;99091.88;4995334;28;20298;-81
2023/05/22 11:13:27;;;;;;;0.55;0.55;;;28.90;99.90;;;28.86;100.00;99006.38;4978902;28;20255;-82